Larissa — C4TK2 — position and weather

sailwx.info

Track history (hours):
 
Tides and Currents Weather Stations Pressure Air Temp Water Temp Dewpoint Dewpoint Depression Visibility Wind Speed Wind Dir Waves Ship Positions

Larissa

Last reported at 2017-Nov-17 17:31 UTC. Time now 2017-Nov-17 17:58 UTC.
Position N 43°21' W 003°03'.

Length 136 m; draft 8 m.

Type: Ship (hazmat cat A). MMSI: 212641000.

Date/timePositionNaut miles runAvg speedWind from/ knotsBaromVisibWave heightAir tempDewpointWater temp
2017-Nov-17 17:31N 43°21' W 003°03'0 0.0
2017-Nov-17 17:01N 43°21' W 003°03'0 0.0
2017-Nov-17 16:31N 43°21' W 003°03'0 0.0
2017-Nov-17 16:01N 43°21' W 003°03'0 0.0
2017-Nov-17 15:31N 43°21' W 003°03'0 0.0
2017-Nov-17 15:01N 43°21' W 003°03'0 0.0
2017-Nov-17 14:31N 43°21' W 003°03'0 0.0
2017-Nov-17 14:00N 43°21' W 003°03'0 0.0
2017-Nov-17 13:31N 43°21' W 003°03'0 0.0
2017-Nov-17 13:01N 43°21' W 003°03'0 0.0
2017-Nov-17 12:31N 43°21' W 003°03'0 0.0
2017-Nov-17 12:00N 43°21' W 003°03'0 0.0
2017-Nov-17 11:31N 43°21' W 003°03'0 0.0
2017-Nov-17 11:01N 43°21' W 003°03'0 0.0
2017-Nov-17 10:31N 43°21' W 003°03'0 0.0
2017-Nov-17 10:01N 43°21' W 003°03'0 0.0
2017-Nov-17 09:31N 43°21' W 003°03'0 0.0
2017-Nov-17 09:00N 43°21' W 003°03'1 1.7
2017-Nov-17 08:31N 43°22' W 003°03'4 8.4
2017-Nov-17 08:00N 43°25' W 003°06'4 8.9
2017-Nov-17 07:31N 43°28' W 003°10'714.1
2017-Nov-17 07:00N 43°34' W 003°15'714.9
2017-Nov-17 06:30N 43°36' W 003°25'815.1
2017-Nov-17 06:00N 43°35' W 003°35'612.3
2017-Nov-17 05:30N 43°35' W 003°44'612.6
2017-Nov-17 05:00N 43°36' W 003°53'612.7
2017-Nov-17 04:30N 43°36' W 004°01'612.9
2017-Nov-17 04:00N 43°36' W 004°10'1113.2
2017-Nov-17 03:11N 43°36' W 004°25'613.1
2017-Nov-17 02:45N 43°36' W 004°33'613.0
2017-Nov-17 02:17N 43°36' W 004°41'3113.0
2017-Nov-16 23:53N 43°37' W 005°25'513.0
2017-Nov-16 23:28N 43°36' W 005°32'7 4.0
2017-Nov-16 21:39N 43°33' W 005°41'0 0.0
2017-Nov-16 20:03N 43°33' W 005°41'0 0.1
2017-Nov-16 19:57N 43°33' W 005°41'0 0.0
2017-Nov-16 18:45N 43°33' W 005°41'0 0.0
2017-Nov-16 18:21N 43°33' W 005°41'0 0.1
2017-Nov-16 14:39N 43°34' W 005°41'1 7.1
2017-Nov-16 14:30N 43°34' W 005°40'611.9
2017-Nov-16 13:59N 43°40' W 005°44'815.9
2017-Nov-16 13:29N 43°42' W 005°55'712.8
2017-Nov-16 12:59N 43°43' W 006°04'812.3
2017-Nov-16 12:21N 43°44' W 006°14'3812.9
2017-Nov-16 09:23N 43°50' W 007°07'512.7
2017-Nov-16 09:00N 43°50' W 007°13'612.6
2017-Nov-16 08:30N 43°51' W 007°22'713.4
2017-Nov-16 08:01N 43°52' W 007°31'713.2
2017-Nov-16 07:30N 43°53' W 007°40'812.8
2017-Nov-16 06:53N 43°54' W 007°51'513.0
2017-Nov-16 06:30N 43°53' W 007°58'246 8.1
2017-Nov-15 00:21N 39°58' W 009°35'513.4
2017-Nov-14 23:57N 39°52' W 009°36'613.6
2017-Nov-14 23:31N 39°47' W 009°38'713.4
2017-Nov-14 23:00N 39°40' W 009°40'713.5
2017-Nov-14 22:30N 39°33' W 009°42'713.3
2017-Nov-14 22:00N 39°27' W 009°43'713.7
2017-Nov-14 21:30N 39°20' W 009°44'713.8
2017-Nov-14 21:00N 39°13' W 009°44'713.5
2017-Nov-14 20:31N 39°06' W 009°44'713.5
2017-Nov-14 20:00N 38°60' W 009°43'713.5
2017-Nov-14 19:30N 38°53' W 009°43'713.5
2017-Nov-14 19:01N 38°46' W 009°43'713.7
2017-Nov-14 18:30N 38°39' W 009°42'612.8
2017-Nov-14 18:00N 38°34' W 009°37'713.4
2017-Nov-14 17:30N 38°29' W 009°31'713.5
2017-Nov-14 17:00N 38°24' W 009°25'713.5
2017-Nov-14 16:30N 38°19' W 009°20'713.5
2017-Nov-14 16:00N 38°14' W 009°15'713.5
2017-Nov-14 15:30N 38°09' W 009°09'714.2
2017-Nov-14 15:00N 38°03' W 009°03'816.2
2017-Nov-14 14:30N 37°57' W 008°56'510.1
2017-Nov-14 14:00N 37°55' W 008°50'1 1.7
2017-Nov-14 13:30N 37°56' W 008°51'0 0.0
2017-Nov-14 13:00N 37°56' W 008°51'0 0.0
2017-Nov-14 12:30N 37°56' W 008°51'0 0.0
2017-Nov-14 12:00N 37°56' W 008°51'0 0.0
2017-Nov-14 11:30N 37°56' W 008°51'0 0.0
2017-Nov-14 11:00N 37°56' W 008°51'0 0.0
2017-Nov-14 10:30N 37°56' W 008°51'2 3.3
2017-Nov-14 10:01N 37°54' W 008°51'611.7
2017-Nov-14 09:31N 37°49' W 008°53'713.2
2017-Nov-14 09:00N 37°44' W 008°59'713.5
2017-Nov-14 08:30N 37°39' W 009°05'713.8
2017-Nov-14 08:00N 37°34' W 009°11'815.4
2017-Nov-14 07:28N 37°28' W 009°18'1417.4
2017-Nov-14 06:41N 37°19' W 009°30'317.5
2017-Nov-14 06:29N 37°16' W 009°33'47816.3
2017-Nov-13 01:12N 30°30' W 014°36'316.2
2017-Nov-13 01:00N 30°27' W 014°38'3316.2
2017-Nov-12 22:57N 29°59' W 014°57'715.9
2017-Nov-12 22:30N 29°52' W 015°01'816.0
2017-Nov-12 22:00N 29°46' W 015°06'815.9
2017-Nov-12 21:30N 29°39' W 015°11'815.8
2017-Nov-12 21:00N 29°32' W 015°15'916.0
2017-Nov-12 20:26N 29°24' W 015°21'716.3
2017-Nov-12 20:00N 29°18' W 015°25'816.2
2017-Nov-12 19:30N 29°11' W 015°29'816.3
2017-Nov-12 19:00N 29°05' W 015°35'816.2
2017-Nov-12 18:30N 28°58' W 015°41'816.2
2017-Nov-12 18:00N 28°52' W 015°46'816.3
2017-Nov-12 17:30N 28°46' W 015°52'816.5
2017-Nov-12 17:00N 28°39' W 015°58'816.7
2017-Nov-12 16:30N 28°33' W 016°04'815.6
2017-Nov-12 16:00N 28°29' W 016°12'2 1.4
2017-Nov-12 14:42N 28°29' W 016°14'0 0.0
2017-Nov-12 14:27N 28°29' W 016°14'0 0.0
2017-Nov-12 13:54N 28°29' W 016°14'0 0.0
2017-Nov-12 13:27N 28°29' W 016°14'0 0.0
2017-Nov-12 12:57N 28°29' W 016°14'0 0.0
2017-Nov-12 12:27N 28°29' W 016°14'0 0.0
2017-Nov-12 11:24N 28°29' W 016°14'0 0.0
2017-Nov-12 10:54N 28°29' W 016°14'0 0.0
2017-Nov-12 10:27N 28°29' W 016°14'0 0.0
2017-Nov-12 09:57N 28°29' W 016°14'0 0.0
2017-Nov-12 09:30N 28°29' W 016°14'0 0.0
2017-Nov-12 08:57N 28°29' W 016°14'0 0.1
2017-Nov-12 08:30N 28°29' W 016°14'2 4.1
2017-Nov-12 08:00N 28°28' W 016°12'816.3
2017-Nov-12 07:31N 28°26' W 016°03'815.9
2017-Nov-12 07:00N 28°23' W 015°55'816.0
2017-Nov-12 06:30N 28°18' W 015°48'816.7
2017-Nov-12 06:00N 28°16' W 015°38'816.5
2017-Nov-12 05:30N 28°14' W 015°29'715.0
2017-Nov-12 05:00N 28°11' W 015°21'5 9.3
2017-Nov-12 04:30N 28°08' W 015°25'0 0.3
2017-Nov-12 03:56N 28°08' W 015°25'0 0.0
2017-Nov-12 03:29N 28°08' W 015°25'0 0.0
2017-Nov-12 02:59N 28°08' W 015°25'0 0.0
2017-Nov-12 02:29N 28°08' W 015°25'0 0.0
2017-Nov-12 01:59N 28°08' W 015°25'0 0.0
2017-Nov-12 01:29N 28°08' W 015°25'0 0.0
2017-Nov-12 00:59N 28°08' W 015°25'0 0.0
2017-Nov-12 00:29N 28°08' W 015°25'0 0.0
2017-Nov-11 23:59N 28°08' W 015°25'0 0.0
2017-Nov-11 23:29N 28°08' W 015°25'0 0.0
2017-Nov-11 22:59N 28°08' W 015°25'0 0.0
2017-Nov-11 22:29N 28°08' W 015°25'0 0.0
2017-Nov-11 21:59N 28°08' W 015°25'0 0.0
2017-Nov-11 21:29N 28°08' W 015°25'0 0.0
2017-Nov-11 20:59N 28°08' W 015°25'0 0.0
2017-Nov-11 20:29N 28°08' W 015°25'0 0.0
2017-Nov-11 19:59N 28°08' W 015°25'0 0.0
2017-Nov-11 19:29N 28°08' W 015°25'0 0.0
2017-Nov-11 18:59N 28°08' W 015°25'0 0.0
2017-Nov-11 18:29N 28°08' W 015°25'0 0.0
2017-Nov-11 17:59N 28°08' W 015°25'0 0.0
2017-Nov-11 17:29N 28°08' W 015°25'0 0.0
2017-Nov-11 16:50N 28°08' W 015°25'0 0.0
2017-Nov-11 16:20N 28°08' W 015°25'0 0.0
2017-Nov-11 15:50N 28°08' W 015°25'0 0.0
2017-Nov-11 15:20N 28°08' W 015°25'0 0.0
2017-Nov-11 14:50N 28°08' W 015°25'0 0.0
2017-Nov-11 14:23N 28°08' W 015°25'0 0.0
2017-Nov-11 13:56N 28°08' W 015°25'0 0.0
2017-Nov-11 13:23N 28°08' W 015°25'0 0.0
2017-Nov-11 12:53N 28°08' W 015°25'0 0.0
2017-Nov-11 12:23N 28°08' W 015°25'0 0.0
2017-Nov-11 11:53N 28°08' W 015°25'0 0.0
2017-Nov-11 11:23N 28°08' W 015°25'0 0.0
2017-Nov-11 10:53N 28°08' W 015°25'0 0.0
2017-Nov-11 10:23N 28°08' W 015°25'0 0.0
2017-Nov-11 09:56N 28°08' W 015°25'0 0.0
2017-Nov-11 09:26N 28°08' W 015°25'0 0.0
2017-Nov-11 08:56N 28°08' W 015°25'0 0.0
2017-Nov-11 08:26N 28°08' W 015°25'0 0.0
2017-Nov-11 07:56N 28°08' W 015°25'0 0.0
2017-Nov-11 07:29N 28°08' W 015°25'0 0.0
2017-Nov-11 06:56N 28°08' W 015°25'0 0.0
2017-Nov-11 06:26N 28°08' W 015°25'0 0.0
2017-Nov-11 05:56N 28°08' W 015°25'0 0.0
2017-Nov-11 05:26N 28°08' W 015°25'0 0.0
2017-Nov-11 04:56N 28°08' W 015°25'0 0.0
2017-Nov-11 04:29N 28°08' W 015°25'0 0.0
2017-Nov-11 03:59N 28°08' W 015°25'0 0.0
2017-Nov-11 03:29N 28°08' W 015°25'0 0.0
2017-Nov-11 02:59N 28°08' W 015°25'0 0.0
2017-Nov-11 02:29N 28°08' W 015°25'0 0.0
2017-Nov-11 01:59N 28°08' W 015°25'0 0.0
2017-Nov-11 01:29N 28°08' W 015°25'0 0.0
2017-Nov-11 00:59N 28°08' W 015°25'0 0.0
2017-Nov-11 00:29N 28°08' W 015°25'0 0.0
2017-Nov-10 23:59N 28°08' W 015°25'0 0.0
2017-Nov-10 23:29N 28°08' W 015°25'0 0.0
2017-Nov-10 22:59N 28°08' W 015°25'0 0.0
2017-Nov-10 22:29N 28°08' W 015°25'0 0.0
2017-Nov-10 21:59N 28°08' W 015°25'0 0.0
2017-Nov-10 21:29N 28°08' W 015°25'0 0.0
2017-Nov-10 20:59N 28°08' W 015°25'0 0.0
2017-Nov-10 20:29N 28°08' W 015°25'0 0.0
2017-Nov-10 19:58N 28°08' W 015°25'0 0.0
2017-Nov-10 19:28N 28°08' W 015°25'0 0.0
2017-Nov-10 18:58N 28°08' W 015°25'0 0.0
2017-Nov-10 18:28N 28°08' W 015°25'0 0.0
2017-Nov-10 17:58N 28°08' W 015°25'0 0.0
2017-Nov-10 17:30N 28°08' W 015°25'2 4.3
2017-Nov-10 17:00N 28°07' W 015°23'611.2
2017-Nov-10 16:30N 28°11' W 015°18'612.1
2017-Nov-10 16:00N 28°16' W 015°14'612.3
2017-Nov-10 15:30N 28°20' W 015°08'612.5
2017-Nov-10 15:01N 28°24' W 015°04'612.6
2017-Nov-10 14:30N 28°29' W 014°58'612.5
2017-Nov-10 14:01N 28°33' W 014°53'612.3
2017-Nov-10 13:30N 28°38' W 014°48'712.7
2017-Nov-10 12:59N 28°42' W 014°43'813.5
2017-Nov-10 12:24N 28°48' W 014°37'713.4
2017-Nov-10 11:51N 28°53' W 014°31'614.9
2017-Nov-10 11:29N 28°57' W 014°27'817.3
2017-Nov-10 11:00N 29°03' W 014°20'917.6
2017-Nov-10 10:30N 29°09' W 014°13'917.5
2017-Nov-10 10:00N 29°16' W 014°06'917.7
2017-Nov-10 09:30N 29°22' W 013°59'917.7
2017-Nov-10 09:00N 29°28' W 013°52'1117.6
2017-Nov-10 08:24N 29°36' W 013°43'717.1
2017-Nov-10 07:58N 29°42' W 013°38'817.0
2017-Nov-10 07:29N 29°47' W 013°31'1017.1
2017-Nov-10 06:54N 29°54' W 013°23'717.8
2017-Nov-10 06:29N 29°60' W 013°17'817.7
2017-Nov-10 06:00N 30°06' W 013°10'1017.9
2017-Nov-10 05:27N 30°13' W 013°02'1617.4
2017-Nov-10 04:33N 30°24' W 012°49'217.4
2017-Nov-10 04:25N 30°25' W 012°47'2217.7
2017-Nov-10 03:13N 30°41' W 012°30'417.4
2017-Nov-10 02:58N 30°44' W 012°26'1117.3
2017-Nov-10 02:19N 30°52' W 012°17'1017.4
2017-Nov-10 01:43N 30°59' W 012°09'284 8.6
2017-Nov-08 16:51N 33°48' W 007°38'916.9
2017-Nov-08 16:19N 33°55' W 007°43'617.1
2017-Nov-08 15:58N 34°01' W 007°47'817.4
2017-Nov-08 15:30N 34°08' W 007°52'9117.2
2017-Nov-08 10:13N 35°25' W 008°49'12414.7
2017-Nov-08 01:48N 37°28' W 009°14'516.9
2017-Nov-08 01:30N 37°32' W 009°10'816.9
2017-Nov-08 01:00N 37°38' W 009°03'917.4
2017-Nov-08 00:30N 37°45' W 008°56'917.4
2017-Nov-08 00:00N 37°53' W 008°51'3 6.3
2017-Nov-07 23:29N 37°56' W 008°51'0 0.0
2017-Nov-07 22:59N 37°56' W 008°51'0 0.0
2017-Nov-07 22:29N 37°56' W 008°51'0 0.0
2017-Nov-07 21:56N 37°56' W 008°51'0 0.0
2017-Nov-07 21:29N 37°56' W 008°51'0 0.0
2017-Nov-07 20:56N 37°56' W 008°51'0 0.0
2017-Nov-07 20:29N 37°56' W 008°51'0 0.0
2017-Nov-07 19:41N 37°56' W 008°51'0 0.0
2017-Nov-07 19:23N 37°56' W 008°51'0 0.0
2017-Nov-07 18:50N 37°56' W 008°51'0 0.0
2017-Nov-07 18:26N 37°56' W 008°51'0 0.0
2017-Nov-07 17:59N 37°56' W 008°51'  
Track history (hours):
 
Tides and Currents Weather Stations Pressure Air Temp Water Temp Dewpoint Dewpoint Depression Visibility Wind Speed Wind Dir Waves Ship Positions

Larissa

Last reported at 2017-Nov-17 17:31 UTC. Time now 2017-Nov-17 17:58 UTC.
Position N 43°21' W 003°03'.

Length 136 m; draft 8 m.

Type: Ship (hazmat cat A). MMSI: 212641000.

Date/timePositionNaut miles runAvg speedWind from/ knotsBaromVisibWave heightAir tempDewpointWater temp
2017-Nov-17 17:31N 43°21' W 003°03'0 0.0
2017-Nov-17 17:01N 43°21' W 003°03'0 0.0
2017-Nov-17 16:31N 43°21' W 003°03'0 0.0
2017-Nov-17 16:01N 43°21' W 003°03'0 0.0
2017-Nov-17 15:31N 43°21' W 003°03'0 0.0
2017-Nov-17 15:01N 43°21' W 003°03'0 0.0
2017-Nov-17 14:31N 43°21' W 003°03'0 0.0
2017-Nov-17 14:00N 43°21' W 003°03'0 0.0
2017-Nov-17 13:31N 43°21' W 003°03'0 0.0
2017-Nov-17 13:01N 43°21' W 003°03'0 0.0
2017-Nov-17 12:31N 43°21' W 003°03'0 0.0
2017-Nov-17 12:00N 43°21' W 003°03'0 0.0
2017-Nov-17 11:31N 43°21' W 003°03'0 0.0
2017-Nov-17 11:01N 43°21' W 003°03'0 0.0
2017-Nov-17 10:31N 43°21' W 003°03'0 0.0
2017-Nov-17 10:01N 43°21' W 003°03'0 0.0
2017-Nov-17 09:31N 43°21' W 003°03'0 0.0
2017-Nov-17 09:00N 43°21' W 003°03'1 1.7
2017-Nov-17 08:31N 43°22' W 003°03'4 8.4
2017-Nov-17 08:00N 43°25' W 003°06'4 8.9
2017-Nov-17 07:31N 43°28' W 003°10'714.1
2017-Nov-17 07:00N 43°34' W 003°15'714.9
2017-Nov-17 06:30N 43°36' W 003°25'815.1
2017-Nov-17 06:00N 43°35' W 003°35'612.3
2017-Nov-17 05:30N 43°35' W 003°44'612.6
2017-Nov-17 05:00N 43°36' W 003°53'612.7
2017-Nov-17 04:30N 43°36' W 004°01'612.9
2017-Nov-17 04:00N 43°36' W 004°10'1113.2
2017-Nov-17 03:11N 43°36' W 004°25'613.1
2017-Nov-17 02:45N 43°36' W 004°33'613.0
2017-Nov-17 02:17N 43°36' W 004°41'3113.0
2017-Nov-16 23:53N 43°37' W 005°25'513.0
2017-Nov-16 23:28N 43°36' W 005°32'7 4.0
2017-Nov-16 21:39N 43°33' W 005°41'0 0.0
2017-Nov-16 20:03N 43°33' W 005°41'0 0.1
2017-Nov-16 19:57N 43°33' W 005°41'0 0.0
2017-Nov-16 18:45N 43°33' W 005°41'0 0.0
2017-Nov-16 18:21N 43°33' W 005°41'0 0.1
2017-Nov-16 14:39N 43°34' W 005°41'1 7.1
2017-Nov-16 14:30N 43°34' W 005°40'611.9
2017-Nov-16 13:59N 43°40' W 005°44'815.9
2017-Nov-16 13:29N 43°42' W 005°55'712.8
2017-Nov-16 12:59N 43°43' W 006°04'812.3
2017-Nov-16 12:21N 43°44' W 006°14'3812.9
2017-Nov-16 09:23N 43°50' W 007°07'512.7
2017-Nov-16 09:00N 43°50' W 007°13'612.6
2017-Nov-16 08:30N 43°51' W 007°22'713.4
2017-Nov-16 08:01N 43°52' W 007°31'713.2
2017-Nov-16 07:30N 43°53' W 007°40'812.8
2017-Nov-16 06:53N 43°54' W 007°51'513.0
2017-Nov-16 06:30N 43°53' W 007°58'246 8.1
2017-Nov-15 00:21N 39°58' W 009°35'513.4
2017-Nov-14 23:57N 39°52' W 009°36'613.6
2017-Nov-14 23:31N 39°47' W 009°38'713.4
2017-Nov-14 23:00N 39°40' W 009°40'713.5
2017-Nov-14 22:30N 39°33' W 009°42'713.3
2017-Nov-14 22:00N 39°27' W 009°43'713.7
2017-Nov-14 21:30N 39°20' W 009°44'713.8
2017-Nov-14 21:00N 39°13' W 009°44'713.5
2017-Nov-14 20:31N 39°06' W 009°44'713.5
2017-Nov-14 20:00N 38°60' W 009°43'713.5
2017-Nov-14 19:30N 38°53' W 009°43'713.5
2017-Nov-14 19:01N 38°46' W 009°43'713.7
2017-Nov-14 18:30N 38°39' W 009°42'612.8
2017-Nov-14 18:00N 38°34' W 009°37'713.4
2017-Nov-14 17:30N 38°29' W 009°31'713.5
2017-Nov-14 17:00N 38°24' W 009°25'713.5
2017-Nov-14 16:30N 38°19' W 009°20'713.5
2017-Nov-14 16:00N 38°14' W 009°15'713.5
2017-Nov-14 15:30N 38°09' W 009°09'714.2
2017-Nov-14 15:00N 38°03' W 009°03'816.2
2017-Nov-14 14:30N 37°57' W 008°56'510.1
2017-Nov-14 14:00N 37°55' W 008°50'1 1.7
2017-Nov-14 13:30N 37°56' W 008°51'0 0.0
2017-Nov-14 13:00N 37°56' W 008°51'0 0.0
2017-Nov-14 12:30N 37°56' W 008°51'0 0.0
2017-Nov-14 12:00N 37°56' W 008°51'0 0.0
2017-Nov-14 11:30N 37°56' W 008°51'0 0.0
2017-Nov-14 11:00N 37°56' W 008°51'0 0.0
2017-Nov-14 10:30N 37°56' W 008°51'2 3.3
2017-Nov-14 10:01N 37°54' W 008°51'611.7
2017-Nov-14 09:31N 37°49' W 008°53'713.2
2017-Nov-14 09:00N 37°44' W 008°59'713.5
2017-Nov-14 08:30N 37°39' W 009°05'713.8
2017-Nov-14 08:00N 37°34' W 009°11'815.4
2017-Nov-14 07:28N 37°28' W 009°18'1417.4
2017-Nov-14 06:41N 37°19' W 009°30'317.5
2017-Nov-14 06:29N 37°16' W 009°33'47816.3
2017-Nov-13 01:12N 30°30' W 014°36'316.2
2017-Nov-13 01:00N 30°27' W 014°38'3316.2
2017-Nov-12 22:57N 29°59' W 014°57'715.9
2017-Nov-12 22:30N 29°52' W 015°01'816.0
2017-Nov-12 22:00N 29°46' W 015°06'815.9
2017-Nov-12 21:30N 29°39' W 015°11'815.8
2017-Nov-12 21:00N 29°32' W 015°15'916.0
2017-Nov-12 20:26N 29°24' W 015°21'716.3
2017-Nov-12 20:00N 29°18' W 015°25'816.2
2017-Nov-12 19:30N 29°11' W 015°29'816.3
2017-Nov-12 19:00N 29°05' W 015°35'816.2
2017-Nov-12 18:30N 28°58' W 015°41'816.2
2017-Nov-12 18:00N 28°52' W 015°46'816.3
2017-Nov-12 17:30N 28°46' W 015°52'816.5
2017-Nov-12 17:00N 28°39' W 015°58'816.7
2017-Nov-12 16:30N 28°33' W 016°04'815.6
2017-Nov-12 16:00N 28°29' W 016°12'2 1.4
2017-Nov-12 14:42N 28°29' W 016°14'0 0.0
2017-Nov-12 14:27N 28°29' W 016°14'0 0.0
2017-Nov-12 13:54N 28°29' W 016°14'0 0.0
2017-Nov-12 13:27N 28°29' W 016°14'0 0.0
2017-Nov-12 12:57N 28°29' W 016°14'0 0.0
2017-Nov-12 12:27N 28°29' W 016°14'0 0.0
2017-Nov-12 11:24N 28°29' W 016°14'0 0.0
2017-Nov-12 10:54N 28°29' W 016°14'0 0.0
2017-Nov-12 10:27N 28°29' W 016°14'0 0.0
2017-Nov-12 09:57N 28°29' W 016°14'0 0.0
2017-Nov-12 09:30N 28°29' W 016°14'0 0.0
2017-Nov-12 08:57N 28°29' W 016°14'0 0.1
2017-Nov-12 08:30N 28°29' W 016°14'2 4.1
2017-Nov-12 08:00N 28°28' W 016°12'816.3
2017-Nov-12 07:31N 28°26' W 016°03'815.9
2017-Nov-12 07:00N 28°23' W 015°55'816.0
2017-Nov-12 06:30N 28°18' W 015°48'816.7
2017-Nov-12 06:00N 28°16' W 015°38'816.5
2017-Nov-12 05:30N 28°14' W 015°29'715.0
2017-Nov-12 05:00N 28°11' W 015°21'5 9.3
2017-Nov-12 04:30N 28°08' W 015°25'0 0.3
2017-Nov-12 03:56N 28°08' W 015°25'0 0.0
2017-Nov-12 03:29N 28°08' W 015°25'0 0.0
2017-Nov-12 02:59N 28°08' W 015°25'0 0.0
2017-Nov-12 02:29N 28°08' W 015°25'0 0.0
2017-Nov-12 01:59N 28°08' W 015°25'0 0.0
2017-Nov-12 01:29N 28°08' W 015°25'0 0.0
2017-Nov-12 00:59N 28°08' W 015°25'0 0.0
2017-Nov-12 00:29N 28°08' W 015°25'0 0.0
2017-Nov-11 23:59N 28°08' W 015°25'0 0.0
2017-Nov-11 23:29N 28°08' W 015°25'0 0.0
2017-Nov-11 22:59N 28°08' W 015°25'0 0.0
2017-Nov-11 22:29N 28°08' W 015°25'0 0.0
2017-Nov-11 21:59N 28°08' W 015°25'0 0.0
2017-Nov-11 21:29N 28°08' W 015°25'0 0.0
2017-Nov-11 20:59N 28°08' W 015°25'0 0.0
2017-Nov-11 20:29N 28°08' W 015°25'0 0.0
2017-Nov-11 19:59N 28°08' W 015°25'0 0.0
2017-Nov-11 19:29N 28°08' W 015°25'0 0.0
2017-Nov-11 18:59N 28°08' W 015°25'0 0.0
2017-Nov-11 18:29N 28°08' W 015°25'0 0.0
2017-Nov-11 17:59N 28°08' W 015°25'0 0.0
2017-Nov-11 17:29N 28°08' W 015°25'0 0.0
2017-Nov-11 16:50N 28°08' W 015°25'0 0.0
2017-Nov-11 16:20N 28°08' W 015°25'0 0.0
2017-Nov-11 15:50N 28°08' W 015°25'0 0.0
2017-Nov-11 15:20N 28°08' W 015°25'0 0.0
2017-Nov-11 14:50N 28°08' W 015°25'0 0.0
2017-Nov-11 14:23N 28°08' W 015°25'0 0.0
2017-Nov-11 13:56N 28°08' W 015°25'0 0.0
2017-Nov-11 13:23N 28°08' W 015°25'0 0.0
2017-Nov-11 12:53N 28°08' W 015°25'0 0.0
2017-Nov-11 12:23N 28°08' W 015°25'0 0.0
2017-Nov-11 11:53N 28°08' W 015°25'0 0.0
2017-Nov-11 11:23N 28°08' W 015°25'0 0.0
2017-Nov-11 10:53N 28°08' W 015°25'0 0.0
2017-Nov-11 10:23N 28°08' W 015°25'0 0.0
2017-Nov-11 09:56N 28°08' W 015°25'0 0.0
2017-Nov-11 09:26N 28°08' W 015°25'0 0.0
2017-Nov-11 08:56N 28°08' W 015°25'0 0.0
2017-Nov-11 08:26N 28°08' W 015°25'0 0.0
2017-Nov-11 07:56N 28°08' W 015°25'0 0.0
2017-Nov-11 07:29N 28°08' W 015°25'0 0.0
2017-Nov-11 06:56N 28°08' W 015°25'0 0.0
2017-Nov-11 06:26N 28°08' W 015°25'0 0.0
2017-Nov-11 05:56N 28°08' W 015°25'0 0.0
2017-Nov-11 05:26N 28°08' W 015°25'0 0.0
2017-Nov-11 04:56N 28°08' W 015°25'0 0.0
2017-Nov-11 04:29N 28°08' W 015°25'0 0.0
2017-Nov-11 03:59N 28°08' W 015°25'0 0.0
2017-Nov-11 03:29N 28°08' W 015°25'0 0.0
2017-Nov-11 02:59N 28°08' W 015°25'0 0.0
2017-Nov-11 02:29N 28°08' W 015°25'0 0.0
2017-Nov-11 01:59N 28°08' W 015°25'0 0.0
2017-Nov-11 01:29N 28°08' W 015°25'0 0.0
2017-Nov-11 00:59N 28°08' W 015°25'0 0.0
2017-Nov-11 00:29N 28°08' W 015°25'0 0.0
2017-Nov-10 23:59N 28°08' W 015°25'0 0.0
2017-Nov-10 23:29N 28°08' W 015°25'0 0.0
2017-Nov-10 22:59N 28°08' W 015°25'0 0.0
2017-Nov-10 22:29N 28°08' W 015°25'0 0.0
2017-Nov-10 21:59N 28°08' W 015°25'0 0.0
2017-Nov-10 21:29N 28°08' W 015°25'0 0.0
2017-Nov-10 20:59N 28°08' W 015°25'0 0.0
2017-Nov-10 20:29N 28°08' W 015°25'0 0.0
2017-Nov-10 19:58N 28°08' W 015°25'0 0.0
2017-Nov-10 19:28N 28°08' W 015°25'0 0.0
2017-Nov-10 18:58N 28°08' W 015°25'0 0.0
2017-Nov-10 18:28N 28°08' W 015°25'0 0.0
2017-Nov-10 17:58N 28°08' W 015°25'0 0.0
2017-Nov-10 17:30N 28°08' W 015°25'2 4.3
2017-Nov-10 17:00N 28°07' W 015°23'611.2
2017-Nov-10 16:30N 28°11' W 015°18'612.1
2017-Nov-10 16:00N 28°16' W 015°14'612.3
2017-Nov-10 15:30N 28°20' W 015°08'612.5
2017-Nov-10 15:01N 28°24' W 015°04'612.6
2017-Nov-10 14:30N 28°29' W 014°58'612.5
2017-Nov-10 14:01N 28°33' W 014°53'612.3
2017-Nov-10 13:30N 28°38' W 014°48'712.7
2017-Nov-10 12:59N 28°42' W 014°43'813.5
2017-Nov-10 12:24N 28°48' W 014°37'713.4
2017-Nov-10 11:51N 28°53' W 014°31'614.9
2017-Nov-10 11:29N 28°57' W 014°27'817.3
2017-Nov-10 11:00N 29°03' W 014°20'917.6
2017-Nov-10 10:30N 29°09' W 014°13'917.5
2017-Nov-10 10:00N 29°16' W 014°06'917.7
2017-Nov-10 09:30N 29°22' W 013°59'917.7
2017-Nov-10 09:00N 29°28' W 013°52'1117.6
2017-Nov-10 08:24N 29°36' W 013°43'717.1
2017-Nov-10 07:58N 29°42' W 013°38'817.0
2017-Nov-10 07:29N 29°47' W 013°31'1017.1
2017-Nov-10 06:54N 29°54' W 013°23'717.8
2017-Nov-10 06:29N 29°60' W 013°17'817.7
2017-Nov-10 06:00N 30°06' W 013°10'1017.9
2017-Nov-10 05:27N 30°13' W 013°02'1617.4
2017-Nov-10 04:33N 30°24' W 012°49'217.4
2017-Nov-10 04:25N 30°25' W 012°47'2217.7
2017-Nov-10 03:13N 30°41' W 012°30'417.4
2017-Nov-10 02:58N 30°44' W 012°26'1117.3
2017-Nov-10 02:19N 30°52' W 012°17'1017.4
2017-Nov-10 01:43N 30°59' W 012°09'284 8.6
2017-Nov-08 16:51N 33°48' W 007°38'916.9
2017-Nov-08 16:19N 33°55' W 007°43'617.1
2017-Nov-08 15:58N 34°01' W 007°47'817.4
2017-Nov-08 15:30N 34°08' W 007°52'9117.2
2017-Nov-08 10:13N 35°25' W 008°49'12414.7
2017-Nov-08 01:48N 37°28' W 009°14'516.9
2017-Nov-08 01:30N 37°32' W 009°10'816.9
2017-Nov-08 01:00N 37°38' W 009°03'917.4
2017-Nov-08 00:30N 37°45' W 008°56'917.4
2017-Nov-08 00:00N 37°53' W 008°51'3 6.3
2017-Nov-07 23:29N 37°56' W 008°51'0 0.0
2017-Nov-07 22:59N 37°56' W 008°51'0 0.0
2017-Nov-07 22:29N 37°56' W 008°51'0 0.0
2017-Nov-07 21:56N 37°56' W 008°51'0 0.0
2017-Nov-07 21:29N 37°56' W 008°51'0 0.0
2017-Nov-07 20:56N 37°56' W 008°51'0 0.0
2017-Nov-07 20:29N 37°56' W 008°51'0 0.0
2017-Nov-07 19:41N 37°56' W 008°51'0 0.0
2017-Nov-07 19:23N 37°56' W 008°51'0 0.0
2017-Nov-07 18:50N 37°56' W 008°51'0 0.0
2017-Nov-07 18:26N 37°56' W 008°51'0 0.0
2017-Nov-07 17:59N 37°56' W 008°51'  

Dump ship's entire track history